sensor_id;sensor_type;location;lat;lon;timestamp;P1;durP1;ratioP1;P2;durP2;ratioP2
5813;SDS011;2933;52.302;8.134;2022-12-29T00:02:31;5.37;;;5.17;;
5813;SDS011;2933;52.302;8.134;2022-12-29T00:07:33;5.70;;;5.50;;
5813;SDS011;2933;52.302;8.134;2022-12-29T00:12:34;6.10;;;5.80;;
5813;SDS011;2933;52.302;8.134;2022-12-29T00:17:54;5.50;;;5.20;;
5813;SDS011;2933;52.302;8.134;2022-12-29T00:22:56;4.93;;;4.63;;
5813;SDS011;2933;52.302;8.134;2022-12-29T00:28:15;5.13;;;4.83;;
5813;SDS011;2933;52.302;8.134;2022-12-29T00:33:35;5.30;;;5.10;;
5813;SDS011;2933;52.302;8.134;2022-12-29T00:38:55;4.83;;;4.63;;
5813;SDS011;2933;52.302;8.134;2022-12-29T00:44:17;4.60;;;4.40;;
5813;SDS011;2933;52.302;8.134;2022-12-29T00:49:20;4.60;;;4.40;;
5813;SDS011;2933;52.302;8.134;2022-12-29T00:54:34;4.30;;;4.00;;
5813;SDS011;2933;52.302;8.134;2022-12-29T00:59:37;4.60;;;4.30;;
5813;SDS011;2933;52.302;8.134;2022-12-29T01:04:41;4.30;;;4.20;;
5813;SDS011;2933;52.302;8.134;2022-12-29T01:09:42;4.20;;;4.10;;
5813;SDS011;2933;52.302;8.134;2022-12-29T01:15:01;4.10;;;3.90;;
5813;SDS011;2933;52.302;8.134;2022-12-29T01:20:05;3.87;;;3.67;;
5813;SDS011;2933;52.302;8.134;2022-12-29T01:25:07;3.87;;;3.67;;
5813;SDS011;2933;52.302;8.134;2022-12-29T01:30:10;3.20;;;3.00;;
5813;SDS011;2933;52.302;8.134;2022-12-29T01:35:13;5.10;;;2.63;;
5813;SDS011;2933;52.302;8.134;2022-12-29T01:40:15;2.50;;;2.40;;
5813;SDS011;2933;52.302;8.134;2022-12-29T01:45:17;2.70;;;2.60;;
5813;SDS011;2933;52.302;8.134;2022-12-29T01:50:22;2.57;;;2.47;;
5813;SDS011;2933;52.302;8.134;2022-12-29T01:55:28;3.23;;;3.13;;
5813;SDS011;2933;52.302;8.134;2022-12-29T02:00:32;4.10;;;4.00;;
5813;SDS011;2933;52.302;8.134;2022-12-29T02:05:36;4.83;;;4.73;;
5813;SDS011;2933;52.302;8.134;2022-12-29T02:10:42;5.77;;;4.80;;
5813;SDS011;2933;52.302;8.134;2022-12-29T02:15:48;6.00;;;5.70;;
5813;SDS011;2933;52.302;8.134;2022-12-29T02:26:46;5.80;;;5.60;;
5813;SDS011;2933;52.302;8.134;2022-12-29T02:32:00;5.53;;;5.43;;
5813;SDS011;2933;52.302;8.134;2022-12-29T02:37:07;7.10;;;6.90;;
5813;SDS011;2933;52.302;8.134;2022-12-29T02:42:20;6.97;;;6.87;;
5813;SDS011;2933;52.302;8.134;2022-12-29T02:47:33;8.17;;;7.87;;
5813;SDS011;2933;52.302;8.134;2022-12-29T02:52:38;7.80;;;7.50;;
5813;SDS011;2933;52.302;8.134;2022-12-29T02:57:45;5.87;;;5.57;;
5813;SDS011;2933;52.302;8.134;2022-12-29T03:02:52;5.30;;;5.20;;
5813;SDS011;2933;52.302;8.134;2022-12-29T03:08:11;4.77;;;4.67;;
5813;SDS011;2933;52.302;8.134;2022-12-29T03:13:21;3.47;;;3.37;;
5813;SDS011;2933;52.302;8.134;2022-12-29T03:18:47;3.70;;;3.60;;
5813;SDS011;2933;52.302;8.134;2022-12-29T03:23:56;3.40;;;3.30;;
5813;SDS011;2933;52.302;8.134;2022-12-29T03:28:57;2.80;;;2.80;;
5813;SDS011;2933;52.302;8.134;2022-12-29T03:34:00;2.70;;;2.67;;
5813;SDS011;2933;52.302;8.134;2022-12-29T03:39:05;2.90;;;2.10;;
5813;SDS011;2933;52.302;8.134;2022-12-29T03:44:12;1.40;;;1.40;;
5813;SDS011;2933;52.302;8.134;2022-12-29T03:49:15;1.30;;;1.30;;
5813;SDS011;2933;52.302;8.134;2022-12-29T03:54:17;1.13;;;1.13;;
5813;SDS011;2933;52.302;8.134;2022-12-29T03:59:18;1.40;;;1.30;;
5813;SDS011;2933;52.302;8.134;2022-12-29T04:04:21;0.83;;;0.83;;
5813;SDS011;2933;52.302;8.134;2022-12-29T04:09:23;0.87;;;0.87;;
5813;SDS011;2933;52.302;8.134;2022-12-29T04:14:24;2.47;;;1.10;;
5813;SDS011;2933;52.302;8.134;2022-12-29T04:19:27;1.87;;;1.13;;
5813;SDS011;2933;52.302;8.134;2022-12-29T04:24:29;2.20;;;0.90;;
5813;SDS011;2933;52.302;8.134;2022-12-29T04:29:31;0.80;;;0.80;;
5813;SDS011;2933;52.302;8.134;2022-12-29T04:34:33;0.83;;;0.83;;
5813;SDS011;2933;52.302;8.134;2022-12-29T04:39:35;0.63;;;0.60;;
5813;SDS011;2933;52.302;8.134;2022-12-29T04:44:37;0.70;;;0.70;;
5813;SDS011;2933;52.302;8.134;2022-12-29T04:49:39;0.60;;;0.60;;
5813;SDS011;2933;52.302;8.134;2022-12-29T04:54:41;0.90;;;0.77;;
5813;SDS011;2933;52.302;8.134;2022-12-29T04:59:42;3.33;;;1.00;;
5813;SDS011;2933;52.302;8.134;2022-12-29T05:04:45;0.77;;;0.77;;
5813;SDS011;2933;52.302;8.134;2022-12-29T05:09:47;0.70;;;0.70;;
5813;SDS011;2933;52.302;8.134;2022-12-29T05:14:48;0.60;;;0.60;;
5813;SDS011;2933;52.302;8.134;2022-12-29T05:19:51;0.60;;;0.60;;
5813;SDS011;2933;52.302;8.134;2022-12-29T05:24:53;0.70;;;0.70;;
5813;SDS011;2933;52.302;8.134;2022-12-29T05:29:55;1.77;;;1.30;;
5813;SDS011;2933;52.302;8.134;2022-12-29T05:34:57;0.90;;;0.90;;
5813;SDS011;2933;52.302;8.134;2022-12-29T05:39:59;1.20;;;1.20;;
5813;SDS011;2933;52.302;8.134;2022-12-29T05:45:00;1.10;;;1.10;;
5813;SDS011;2933;52.302;8.134;2022-12-29T05:50:04;1.30;;;1.30;;
5813;SDS011;2933;52.302;8.134;2022-12-29T05:55:06;1.80;;;1.70;;
5813;SDS011;2933;52.302;8.134;2022-12-29T06:00:08;1.83;;;1.83;;
5813;SDS011;2933;52.302;8.134;2022-12-29T06:05:12;2.00;;;2.00;;
5813;SDS011;2933;52.302;8.134;2022-12-29T06:10:14;2.60;;;2.40;;
5813;SDS011;2933;52.302;8.134;2022-12-29T06:15:15;3.00;;;3.00;;
5813;SDS011;2933;52.302;8.134;2022-12-29T06:20:18;3.70;;;3.50;;
5813;SDS011;2933;52.302;8.134;2022-12-29T06:25:20;3.00;;;3.00;;
5813;SDS011;2933;52.302;8.134;2022-12-29T06:30:21;3.70;;;3.60;;
5813;SDS011;2933;52.302;8.134;2022-12-29T06:35:24;3.20;;;3.10;;
5813;SDS011;2933;52.302;8.134;2022-12-29T06:40:27;3.30;;;2.90;;
5813;SDS011;2933;52.302;8.134;2022-12-29T06:45:29;2.60;;;2.60;;
5813;SDS011;2933;52.302;8.134;2022-12-29T06:50:32;2.50;;;2.50;;
5813;SDS011;2933;52.302;8.134;2022-12-29T06:55:33;6.43;;;2.23;;
5813;SDS011;2933;52.302;8.134;2022-12-29T07:00:35;2.70;;;1.90;;
5813;SDS011;2933;52.302;8.134;2022-12-29T07:05:38;1.83;;;1.80;;
5813;SDS011;2933;52.302;8.134;2022-12-29T07:10:39;1.80;;;1.70;;
5813;SDS011;2933;52.302;8.134;2022-12-29T07:15:41;3.77;;;2.00;;
5813;SDS011;2933;52.302;8.134;2022-12-29T07:20:44;2.93;;;1.40;;
5813;SDS011;2933;52.302;8.134;2022-12-29T07:25:45;2.70;;;1.27;;
5813;SDS011;2933;52.302;8.134;2022-12-29T07:30:47;1.37;;;1.13;;
5813;SDS011;2933;52.302;8.134;2022-12-29T07:35:50;1.13;;;0.70;;
5813;SDS011;2933;52.302;8.134;2022-12-29T07:40:55;2.33;;;0.90;;
5813;SDS011;2933;52.302;8.134;2022-12-29T07:45:58;1.50;;;0.80;;
5813;SDS011;2933;52.302;8.134;2022-12-29T07:51:01;1.27;;;0.80;;
5813;SDS011;2933;52.302;8.134;2022-12-29T07:56:02;2.40;;;0.90;;
5813;SDS011;2933;52.302;8.134;2022-12-29T08:01:04;0.80;;;0.80;;
5813;SDS011;2933;52.302;8.134;2022-12-29T08:06:09;2.80;;;1.00;;
5813;SDS011;2933;52.302;8.134;2022-12-29T08:11:11;3.77;;;1.03;;
5813;SDS011;2933;52.302;8.134;2022-12-29T08:16:13;7.20;;;0.93;;
5813;SDS011;2933;52.302;8.134;2022-12-29T08:21:15;3.33;;;0.90;;
5813;SDS011;2933;52.302;8.134;2022-12-29T08:26:17;1.63;;;0.80;;
5813;SDS011;2933;52.302;8.134;2022-12-29T08:31:18;0.70;;;0.50;;
5813;SDS011;2933;52.302;8.134;2022-12-29T08:36:22;2.57;;;0.90;;
5813;SDS011;2933;52.302;8.134;2022-12-29T08:41:23;2.20;;;0.70;;
5813;SDS011;2933;52.302;8.134;2022-12-29T08:46:25;3.23;;;0.80;;
5813;SDS011;2933;52.302;8.134;2022-12-29T08:51:28;1.90;;;0.80;;
5813;SDS011;2933;52.302;8.134;2022-12-29T08:56:29;4.23;;;0.87;;
5813;SDS011;2933;52.302;8.134;2022-12-29T09:01:31;0.80;;;0.70;;
5813;SDS011;2933;52.302;8.134;2022-12-29T09:06:34;0.93;;;0.60;;
5813;SDS011;2933;52.302;8.134;2022-12-29T09:11:36;3.07;;;0.73;;
5813;SDS011;2933;52.302;8.134;2022-12-29T09:16:38;2.83;;;0.90;;
5813;SDS011;2933;52.302;8.134;2022-12-29T09:21:41;2.20;;;0.80;;
5813;SDS011;2933;52.302;8.134;2022-12-29T09:26:42;2.40;;;0.73;;
5813;SDS011;2933;52.302;8.134;2022-12-29T09:31:45;4.13;;;0.90;;
5813;SDS011;2933;52.302;8.134;2022-12-29T09:36:47;2.47;;;0.90;;
5813;SDS011;2933;52.302;8.134;2022-12-29T09:41:49;0.67;;;0.67;;
5813;SDS011;2933;52.302;8.134;2022-12-29T09:47:00;5.60;;;0.80;;
5813;SDS011;2933;52.302;8.134;2022-12-29T09:52:04;0.80;;;0.80;;
5813;SDS011;2933;52.302;8.134;2022-12-29T09:57:15;2.40;;;0.77;;
5813;SDS011;2933;52.302;8.134;2022-12-29T10:02:31;3.60;;;1.10;;
5813;SDS011;2933;52.302;8.134;2022-12-29T10:07:40;1.00;;;0.70;;
5813;SDS011;2933;52.302;8.134;2022-12-29T10:12:52;2.03;;;1.43;;
5813;SDS011;2933;52.302;8.134;2022-12-29T10:18:03;2.13;;;0.80;;
5813;SDS011;2933;52.302;8.134;2022-12-29T10:23:29;7.37;;;1.23;;
5813;SDS011;2933;52.302;8.134;2022-12-29T10:28:37;3.60;;;1.03;;
5813;SDS011;2933;52.302;8.134;2022-12-29T10:33:43;2.40;;;1.00;;
5813;SDS011;2933;52.302;8.134;2022-12-29T10:38:47;10.47;;;0.97;;
5813;SDS011;2933;52.302;8.134;2022-12-29T10:43:54;5.00;;;1.10;;
5813;SDS011;2933;52.302;8.134;2022-12-29T10:48:58;4.67;;;1.00;;
5813;SDS011;2933;52.302;8.134;2022-12-29T10:54:03;3.60;;;0.97;;
5813;SDS011;2933;52.302;8.134;2022-12-29T10:59:11;0.90;;;0.70;;
5813;SDS011;2933;52.302;8.134;2022-12-29T11:09:46;2.10;;;0.63;;
5813;SDS011;2933;52.302;8.134;2022-12-29T11:14:50;7.67;;;1.47;;
5813;SDS011;2933;52.302;8.134;2022-12-29T11:20:14;4.57;;;1.17;;
5813;SDS011;2933;52.302;8.134;2022-12-29T11:25:29;4.83;;;1.00;;
5813;SDS011;2933;52.302;8.134;2022-12-29T11:30:31;2.70;;;1.13;;
5813;SDS011;2933;52.302;8.134;2022-12-29T11:35:34;8.00;;;1.23;;
5813;SDS011;2933;52.302;8.134;2022-12-29T11:40:39;5.60;;;1.20;;
5813;SDS011;2933;52.302;8.134;2022-12-29T11:45:40;5.50;;;0.97;;
5813;SDS011;2933;52.302;8.134;2022-12-29T11:50:48;5.00;;;1.20;;
5813;SDS011;2933;52.302;8.134;2022-12-29T11:55:55;3.80;;;0.93;;
5813;SDS011;2933;52.302;8.134;2022-12-29T12:00:59;3.33;;;1.17;;
5813;SDS011;2933;52.302;8.134;2022-12-29T12:06:05;4.23;;;0.83;;
5813;SDS011;2933;52.302;8.134;2022-12-29T12:11:15;7.90;;;0.90;;
5813;SDS011;2933;52.302;8.134;2022-12-29T12:16:21;5.53;;;1.10;;
5813;SDS011;2933;52.302;8.134;2022-12-29T12:21:29;6.80;;;0.90;;
5813;SDS011;2933;52.302;8.134;2022-12-29T12:26:37;4.80;;;1.07;;
5813;SDS011;2933;52.302;8.134;2022-12-29T12:31:47;4.50;;;0.80;;
5813;SDS011;2933;52.302;8.134;2022-12-29T12:37:00;5.17;;;0.80;;
5813;SDS011;2933;52.302;8.134;2022-12-29T12:42:18;3.00;;;0.93;;
5813;SDS011;2933;52.302;8.134;2022-12-29T12:47:44;0.90;;;0.80;;
5813;SDS011;2933;52.302;8.134;2022-12-29T12:53:02;4.73;;;0.80;;
5813;SDS011;2933;52.302;8.134;2022-12-29T12:58:21;2.53;;;1.10;;
5813;SDS011;2933;52.302;8.134;2022-12-29T13:03:35;0.77;;;0.77;;
5813;SDS011;2933;52.302;8.134;2022-12-29T13:08:49;18.13;;;1.30;;
5813;SDS011;2933;52.302;8.134;2022-12-29T13:14:06;2.30;;;0.90;;
5813;SDS011;2933;52.302;8.134;2022-12-29T13:19:17;2.20;;;0.77;;
5813;SDS011;2933;52.302;8.134;2022-12-29T13:24:31;3.13;;;1.00;;
5813;SDS011;2933;52.302;8.134;2022-12-29T13:29:43;4.90;;;0.83;;
5813;SDS011;2933;52.302;8.134;2022-12-29T13:34:53;3.23;;;1.10;;
5813;SDS011;2933;52.302;8.134;2022-12-29T13:40:10;6.77;;;1.27;;
5813;SDS011;2933;52.302;8.134;2022-12-29T13:45:18;2.97;;;1.37;;
5813;SDS011;2933;52.302;8.134;2022-12-29T13:50:23;3.93;;;0.80;;
5813;SDS011;2933;52.302;8.134;2022-12-29T13:55:27;2.60;;;1.00;;
5813;SDS011;2933;52.302;8.134;2022-12-29T14:00:38;6.97;;;1.47;;
5813;SDS011;2933;52.302;8.134;2022-12-29T14:06:03;3.50;;;1.47;;
5813;SDS011;2933;52.302;8.134;2022-12-29T14:11:14;8.60;;;1.40;;
5813;SDS011;2933;52.302;8.134;2022-12-29T14:16:26;9.80;;;1.53;;
5813;SDS011;2933;52.302;8.134;2022-12-29T14:21:32;2.30;;;1.37;;
5813;SDS011;2933;52.302;8.134;2022-12-29T14:26:35;1.37;;;1.00;;
5813;SDS011;2933;52.302;8.134;2022-12-29T14:31:38;1.83;;;1.00;;
5813;SDS011;2933;52.302;8.134;2022-12-29T14:36:42;2.23;;;1.00;;
5813;SDS011;2933;52.302;8.134;2022-12-29T14:41:58;10.03;;;1.40;;
5813;SDS011;2933;52.302;8.134;2022-12-29T14:47:04;2.00;;;0.97;;
5813;SDS011;2933;52.302;8.134;2022-12-29T14:52:13;1.90;;;0.70;;
5813;SDS011;2933;52.302;8.134;2022-12-29T14:57:22;3.43;;;1.03;;
5813;SDS011;2933;52.302;8.134;2022-12-29T15:02:33;3.63;;;1.40;;
5813;SDS011;2933;52.302;8.134;2022-12-29T15:07:39;4.37;;;0.90;;
5813;SDS011;2933;52.302;8.134;2022-12-29T15:12:43;3.97;;;1.37;;
5813;SDS011;2933;52.302;8.134;2022-12-29T15:17:53;9.27;;;1.40;;
5813;SDS011;2933;52.302;8.134;2022-12-29T15:22:55;2.43;;;1.30;;
5813;SDS011;2933;52.302;8.134;2022-12-29T15:28:00;3.73;;;1.20;;
5813;SDS011;2933;52.302;8.134;2022-12-29T15:33:11;2.23;;;1.03;;
5813;SDS011;2933;52.302;8.134;2022-12-29T15:38:21;2.50;;;1.17;;
5813;SDS011;2933;52.302;8.134;2022-12-29T15:43:28;5.40;;;1.30;;
5813;SDS011;2933;52.302;8.134;2022-12-29T15:48:45;6.93;;;1.40;;
5813;SDS011;2933;52.302;8.134;2022-12-29T15:53:47;7.53;;;1.00;;
5813;SDS011;2933;52.302;8.134;2022-12-29T15:58:51;4.30;;;1.10;;
5813;SDS011;2933;52.302;8.134;2022-12-29T16:03:55;8.17;;;1.50;;
5813;SDS011;2933;52.302;8.134;2022-12-29T16:09:00;2.80;;;2.27;;
5813;SDS011;2933;52.302;8.134;2022-12-29T16:14:06;9.10;;;1.70;;
5813;SDS011;2933;52.302;8.134;2022-12-29T16:19:13;3.50;;;1.23;;
5813;SDS011;2933;52.302;8.134;2022-12-29T16:24:19;7.30;;;1.23;;
5813;SDS011;2933;52.302;8.134;2022-12-29T16:29:23;1.90;;;0.90;;
5813;SDS011;2933;52.302;8.134;2022-12-29T16:34:28;3.30;;;0.87;;
5813;SDS011;2933;52.302;8.134;2022-12-29T16:39:32;0.70;;;0.70;;
5813;SDS011;2933;52.302;8.134;2022-12-29T16:44:35;5.43;;;2.23;;
5813;SDS011;2933;52.302;8.134;2022-12-29T16:49:39;4.80;;;1.83;;
5813;SDS011;2933;52.302;8.134;2022-12-29T16:54:47;3.67;;;1.80;;
5813;SDS011;2933;52.302;8.134;2022-12-29T16:59:53;2.20;;;1.13;;
5813;SDS011;2933;52.302;8.134;2022-12-29T17:04:59;3.67;;;1.17;;
5813;SDS011;2933;52.302;8.134;2022-12-29T17:10:00;5.47;;;1.20;;
5813;SDS011;2933;52.302;8.134;2022-12-29T17:15:02;3.73;;;1.40;;
5813;SDS011;2933;52.302;8.134;2022-12-29T17:20:13;1.47;;;1.37;;
5813;SDS011;2933;52.302;8.134;2022-12-29T17:25:17;4.20;;;2.13;;
5813;SDS011;2933;52.302;8.134;2022-12-29T17:30:20;10.37;;;1.73;;
5813;SDS011;2933;52.302;8.134;2022-12-29T17:35:25;7.63;;;1.50;;
5813;SDS011;2933;52.302;8.134;2022-12-29T17:40:28;3.37;;;1.50;;
5813;SDS011;2933;52.302;8.134;2022-12-29T17:45:32;2.33;;;1.10;;
5813;SDS011;2933;52.302;8.134;2022-12-29T17:50:35;1.70;;;1.53;;
5813;SDS011;2933;52.302;8.134;2022-12-29T17:55:37;2.70;;;0.80;;
5813;SDS011;2933;52.302;8.134;2022-12-29T18:00:38;6.70;;;1.30;;
5813;SDS011;2933;52.302;8.134;2022-12-29T18:05:41;3.50;;;1.60;;
5813;SDS011;2933;52.302;8.134;2022-12-29T18:10:43;4.80;;;1.70;;
5813;SDS011;2933;52.302;8.134;2022-12-29T18:15:45;2.63;;;1.20;;
5813;SDS011;2933;52.302;8.134;2022-12-29T18:20:49;2.83;;;0.90;;
5813;SDS011;2933;52.302;8.134;2022-12-29T18:25:53;5.67;;;1.20;;
5813;SDS011;2933;52.302;8.134;2022-12-29T18:30:58;2.83;;;1.20;;
5813;SDS011;2933;52.302;8.134;2022-12-29T18:36:03;1.40;;;1.30;;
5813;SDS011;2933;52.302;8.134;2022-12-29T18:41:08;4.07;;;0.90;;
5813;SDS011;2933;52.302;8.134;2022-12-29T18:46:14;8.73;;;1.20;;
5813;SDS011;2933;52.302;8.134;2022-12-29T18:51:18;3.27;;;1.30;;
5813;SDS011;2933;52.302;8.134;2022-12-29T18:56:22;3.27;;;1.00;;
5813;SDS011;2933;52.302;8.134;2022-12-29T19:01:24;1.93;;;0.80;;
5813;SDS011;2933;52.302;8.134;2022-12-29T19:06:28;4.17;;;0.93;;
5813;SDS011;2933;52.302;8.134;2022-12-29T19:11:30;5.33;;;1.40;;
5813;SDS011;2933;52.302;8.134;2022-12-29T19:16:32;2.60;;;1.20;;
5813;SDS011;2933;52.302;8.134;2022-12-29T19:21:34;1.20;;;1.10;;
5813;SDS011;2933;52.302;8.134;2022-12-29T19:26:37;5.07;;;1.30;;
5813;SDS011;2933;52.302;8.134;2022-12-29T19:31:40;5.40;;;1.27;;
5813;SDS011;2933;52.302;8.134;2022-12-29T19:36:43;2.07;;;1.30;;
5813;SDS011;2933;52.302;8.134;2022-12-29T19:41:45;2.63;;;1.30;;
5813;SDS011;2933;52.302;8.134;2022-12-29T19:46:47;6.20;;;1.23;;
5813;SDS011;2933;52.302;8.134;2022-12-29T19:51:50;2.30;;;1.17;;
5813;SDS011;2933;52.302;8.134;2022-12-29T19:56:51;5.00;;;1.50;;
5813;SDS011;2933;52.302;8.134;2022-12-29T20:01:53;3.17;;;1.37;;
5813;SDS011;2933;52.302;8.134;2022-12-29T20:06:56;5.70;;;1.57;;
5813;SDS011;2933;52.302;8.134;2022-12-29T20:11:58;5.13;;;1.50;;
5813;SDS011;2933;52.302;8.134;2022-12-29T20:16:59;2.70;;;1.10;;
5813;SDS011;2933;52.302;8.134;2022-12-29T20:22:02;3.00;;;1.23;;
5813;SDS011;2933;52.302;8.134;2022-12-29T20:27:07;4.63;;;1.00;;
5813;SDS011;2933;52.302;8.134;2022-12-29T20:32:10;6.57;;;1.23;;
5813;SDS011;2933;52.302;8.134;2022-12-29T20:37:15;4.33;;;1.20;;
5813;SDS011;2933;52.302;8.134;2022-12-29T20:42:17;9.30;;;1.77;;
5813;SDS011;2933;52.302;8.134;2022-12-29T20:47:18;8.50;;;1.90;;
5813;SDS011;2933;52.302;8.134;2022-12-29T20:52:21;1.67;;;1.20;;
5813;SDS011;2933;52.302;8.134;2022-12-29T20:57:23;3.30;;;1.37;;
5813;SDS011;2933;52.302;8.134;2022-12-29T21:02:24;2.27;;;1.27;;
5813;SDS011;2933;52.302;8.134;2022-12-29T21:07:27;6.67;;;1.57;;
5813;SDS011;2933;52.302;8.134;2022-12-29T21:12:29;4.80;;;1.57;;
5813;SDS011;2933;52.302;8.134;2022-12-29T21:17:31;8.37;;;1.60;;
5813;SDS011;2933;52.302;8.134;2022-12-29T21:22:34;8.03;;;1.80;;
5813;SDS011;2933;52.302;8.134;2022-12-29T21:27:35;4.80;;;1.57;;
5813;SDS011;2933;52.302;8.134;2022-12-29T21:32:37;8.43;;;1.47;;
5813;SDS011;2933;52.302;8.134;2022-12-29T21:37:40;10.97;;;1.43;;
5813;SDS011;2933;52.302;8.134;2022-12-29T21:42:41;18.67;;;2.13;;
5813;SDS011;2933;52.302;8.134;2022-12-29T21:47:43;10.83;;;2.10;;
5813;SDS011;2933;52.302;8.134;2022-12-29T21:53:03;16.33;;;2.00;;
5813;SDS011;2933;52.302;8.134;2022-12-29T21:58:05;9.83;;;2.07;;
5813;SDS011;2933;52.302;8.134;2022-12-29T22:03:24;8.23;;;1.93;;
5813;SDS011;2933;52.302;8.134;2022-12-29T22:08:44;8.60;;;1.93;;
5813;SDS011;2933;52.302;8.134;2022-12-29T22:14:03;20.97;;;2.63;;
5813;SDS011;2933;52.302;8.134;2022-12-29T22:19:06;11.23;;;2.47;;
5813;SDS011;2933;52.302;8.134;2022-12-29T22:24:11;15.47;;;2.33;;
5813;SDS011;2933;52.302;8.134;2022-12-29T22:29:13;8.00;;;2.13;;
5813;SDS011;2933;52.302;8.134;2022-12-29T22:34:15;6.77;;;1.80;;
5813;SDS011;2933;52.302;8.134;2022-12-29T22:39:18;8.60;;;2.33;;
5813;SDS011;2933;52.302;8.134;2022-12-29T22:44:20;12.57;;;2.30;;
5813;SDS011;2933;52.302;8.134;2022-12-29T22:49:21;12.63;;;2.23;;
5813;SDS011;2933;52.302;8.134;2022-12-29T22:54:24;21.10;;;2.40;;
5813;SDS011;2933;52.302;8.134;2022-12-29T22:59:26;5.23;;;1.80;;
5813;SDS011;2933;52.302;8.134;2022-12-29T23:04:27;5.83;;;2.00;;
5813;SDS011;2933;52.302;8.134;2022-12-29T23:09:30;12.97;;;2.27;;
5813;SDS011;2933;52.302;8.134;2022-12-29T23:14:32;12.93;;;2.23;;
5813;SDS011;2933;52.302;8.134;2022-12-29T23:19:34;12.93;;;2.13;;
5813;SDS011;2933;52.302;8.134;2022-12-29T23:24:37;7.20;;;2.40;;
5813;SDS011;2933;52.302;8.134;2022-12-29T23:29:39;13.50;;;2.20;;
5813;SDS011;2933;52.302;8.134;2022-12-29T23:34:40;8.40;;;2.47;;
5813;SDS011;2933;52.302;8.134;2022-12-29T23:39:43;8.57;;;2.10;;
5813;SDS011;2933;52.302;8.134;2022-12-29T23:44:45;8.77;;;1.90;;
5813;SDS011;2933;52.302;8.134;2022-12-29T23:49:46;9.50;;;2.10;;
5813;SDS011;2933;52.302;8.134;2022-12-29T23:54:49;7.63;;;2.10;;
5813;SDS011;2933;52.302;8.134;2022-12-29T23:59:51;8.63;;;2.33;;
